Time;durP1;ratioP1;P1;durP2;ratioP2;P2;SDS_P1;SDS_P2;PMS_P1;PMS_P2;Temp;Humidity;BMP_temperature;BMP_pressure;BME280_temperature;BME280_humidity;BME280_pressure;Samples;Min_cycle;Max_cycle;Signal;HPM_P1;HPM_P2
2022/11/27 00:00:21;;;;;;;;;12.00;10.50;;;;;9.71;67.91;101712.31;5016290;28;45551;-75
2022/11/27 00:02:47;;;;;;;;;15.25;11.75;;;;;9.71;67.66;101706.22;5016320;28;45613;-73
2022/11/27 00:08:34;;;;;;;;;14.00;11.00;;;;;9.76;67.73;101709.47;5016038;28;45706;-75
2022/11/27 00:11:20;;;;;;;;;10.00;10.00;;;;;9.77;67.92;101711.16;5016085;28;46602;-75
2022/11/27 00:13:46;;;;;;;;;10.75;8.25;;;;;9.78;67.78;101707.59;5016171;28;46348;-75
2022/11/27 00:16:13;;;;;;;;;10.25;8.00;;;;;9.76;67.91;101688.53;5016141;28;45502;-74
2022/11/27 00:18:38;;;;;;;;;6.00;5.00;;;;;9.76;67.72;101694.59;5016251;28;45535;-74
2022/11/27 00:21:07;;;;;;;;;10.25;9.00;;;;;9.69;67.45;101687.97;5015882;28;46425;-74
2022/11/27 00:23:33;;;;;;;;;11.75;10.25;;;;;9.68;67.51;101679.28;5014457;28;46258;-75
2022/11/27 00:25:59;;;;;;;;;9.00;9.00;;;;;9.73;67.45;101686.03;5015164;28;45756;-75
2022/11/27 00:28:24;;;;;;;;;10.75;10.00;;;;;9.72;67.62;101681.75;5014466;28;45844;-75
2022/11/27 00:30:50;;;;;;;;;10.50;7.00;;;;;9.68;67.54;101674.03;5015840;28;45612;-72
2022/11/27 00:33:15;;;;;;;;;11.75;8.75;;;;;9.62;67.37;101657.78;5015539;28;47038;-75
2022/11/27 00:35:41;;;;;;;;;6.00;6.00;;;;;9.66;67.72;101672.44;5015574;28;45685;-74
2022/11/27 00:38:07;;;;;;;;;11.75;8.25;;;;;9.62;67.56;101663.03;5014027;28;45764;-75
2022/11/27 00:40:32;;;;;;;;;11.75;9.50;;;;;9.63;67.51;101659.50;5016068;28;46607;-75
2022/11/27 00:42:58;;;;;;;;;12.00;8.00;;;;;9.61;67.49;101653.47;5047879;28;46823;-74
2022/11/27 00:45:23;;;;;;;;;10.50;7.75;;;;;9.61;67.77;101651.72;5015800;28;46022;-74
2022/11/27 00:47:48;;;;;;;;;8.50;7.75;;;;;9.60;67.46;101652.66;5031026;28;45911;-74
2022/11/27 00:50:14;;;;;;;;;8.00;7.25;;;;;9.59;67.70;101650.97;5015445;28;47422;-75
2022/11/27 00:52:40;;;;;;;;;12.25;7.75;;;;;9.57;67.85;101641.50;5015556;28;45562;-75
2022/11/27 00:55:06;;;;;;;;;8.50;8.50;;;;;9.54;67.49;101646.88;5015550;28;45510;-74
2022/11/27 00:57:31;;;;;;;;;9.25;7.00;;;;;9.50;67.78;101638.31;5015617;28;45737;-74
2022/11/27 00:59:56;;;;;;;;;11.25;8.50;;;;;9.51;67.70;101650.50;5015111;28;46329;-74
2022/11/27 01:02:22;;;;;;;;;7.75;6.50;;;;;9.49;67.70;101643.66;5030905;28;45614;-75
2022/11/27 01:04:48;;;;;;;;;13.00;8.25;;;;;9.47;67.80;101635.88;5015517;28;45646;-74
2022/11/27 01:07:13;;;;;;;;;10.25;7.75;;;;;9.51;67.64;101629.56;5015191;28;45562;-75
2022/11/27 01:09:39;;;;;;;;;10.25;10.25;;;;;9.49;67.57;101627.97;5014960;28;46509;-73
2022/11/27 01:12:05;;;;;;;;;1.50;1.00;;;;;9.52;67.55;101628.66;5015296;28;45933;-74
2022/11/27 01:14:30;;;;;;;;;10.50;10.00;;;;;9.52;67.53;101630.41;5014933;28;45605;-74
2022/11/27 01:16:55;;;;;;;;;10.00;8.25;;;;;9.53;67.56;101621.66;5014895;28;45845;-75
2022/11/27 01:19:21;;;;;;;;;9.50;8.00;;;;;9.51;67.74;101632.19;5014855;28;46488;-74
2022/11/27 01:25:08;;;;;;;;;8.50;8.00;;;;;9.46;67.52;101636.78;5014962;28;45733;-75
2022/11/27 01:27:35;;;;;;;;;7.00;7.00;;;;;9.45;67.80;101631.63;5014753;28;45629;-75
2022/11/27 01:30:00;;;;;;;;;11.50;9.50;;;;;9.42;67.79;101630.03;5013456;28;47380;-74
2022/11/27 01:32:26;;;;;;;;;12.50;10.50;;;;;9.38;67.79;101611.97;5014342;28;46405;-74
2022/11/27 01:34:51;;;;;;;;;8.50;8.50;;;;;9.38;67.79;101604.13;5047071;28;45553;-74
2022/11/27 01:37:16;;;;;;;;;8.25;8.25;;;;;9.35;67.77;101599.88;5014365;28;45780;-74
2022/11/27 01:39:42;;;;;;;;;7.00;7.00;;;;;9.42;68.06;101608.25;5014656;28;45519;-74
2022/11/27 01:42:10;;;;;;;;;12.00;9.50;;;;;9.39;68.07;101608.44;5014722;28;45585;-73
2022/11/27 01:44:35;;;;;;;;;12.00;9.75;;;;;9.40;67.70;101607.47;5014886;28;45825;-73
2022/11/27 01:47:04;;;;;;;;;10.50;9.75;;;;;9.39;67.81;101605.81;5014767;28;45528;-73
2022/11/27 01:55:59;;;;;;;;;15.75;8.00;;;;;9.38;67.41;101607.56;5014335;28;45956;-74
2022/11/27 01:58:29;;;;;;;;;10.75;8.00;;;;;9.41;67.65;101593.47;5014255;28;45708;-74
2022/11/27 02:00:54;;;;;;;;;9.75;7.75;;;;;9.43;67.77;101591.66;5014423;28;45720;-75
2022/11/27 02:03:21;;;;;;;;;9.00;8.50;;;;;9.42;67.96;101584.72;5014519;28;46004;-76
2022/11/27 02:05:46;;;;;;;;;9.00;7.75;;;;;9.45;67.83;101579.31;5014429;28;45647;-75
2022/11/27 02:08:14;;;;;;;;;13.25;10.00;;;;;9.39;67.63;101567.44;5014352;28;45522;-74
2022/11/27 02:10:49;;;;;;;;;5.75;5.00;;;;;9.45;67.87;101582.78;5014073;28;47684;-74
2022/11/27 02:13:27;;;;;;;;;7.75;7.00;;;;;9.43;67.64;101582.03;5014440;28;45602;-74
2022/11/27 02:16:11;;;;;;;;;9.00;8.00;;;;;9.47;67.73;101583.56;5013921;28;45679;-74
2022/11/27 02:18:53;;;;;;;;;11.00;6.25;;;;;9.48;67.85;101587.88;5029411;28;45565;-75
2022/11/27 02:21:56;;;;;;;;;7.00;3.00;;;;;9.49;67.66;101584.34;5014067;28;46579;-74
2022/11/27 02:24:21;;;;;;;;;9.50;8.00;;;;;9.49;67.75;101583.50;5012002;28;46108;-73
2022/11/27 02:27:03;;;;;;;;;7.67;7.67;;;;;9.49;67.61;101584.34;5012069;28;45657;-75
2022/11/27 02:29:32;;;;;;;;;8.00;8.00;;;;;9.50;67.87;101591.25;5011754;28;45583;-74
2022/11/27 02:32:24;;;;;;;;;7.00;6.00;;;;;9.51;67.92;101584.25;5011733;28;46520;-74
2022/11/27 02:34:59;;;;;;;;;7.00;6.25;;;;;9.51;67.73;101579.88;5011751;28;46068;-74
2022/11/27 02:37:41;;;;;;;;;7.00;7.00;;;;;9.50;67.74;101574.72;5011244;28;45818;-74
2022/11/27 02:40:15;;;;;;;;;10.00;7.00;;;;;9.53;67.70;101574.56;5012035;28;45699;-74
2022/11/27 02:42:55;;;;;;;;;8.50;7.50;;;;;9.52;67.87;101570.25;5012013;28;46594;-73
2022/11/27 02:45:28;;;;;;;;;7.50;6.25;;;;;9.48;67.65;101563.50;5011468;28;46583;-74
2022/11/27 02:47:55;;;;;;;;;9.75;7.00;;;;;9.53;67.49;101569.31;5011587;28;45705;-74
2022/11/27 02:50:24;;;;;;;;;7.50;6.00;;;;;9.53;67.58;101570.19;5011246;28;45790;-73
2022/11/27 02:52:52;;;;;;;;;7.00;7.00;;;;;9.53;67.61;101557.09;5011422;28;47532;-74
2022/11/27 02:55:23;;;;;;;;;5.50;3.00;;;;;9.56;67.62;101548.22;5011667;28;46382;-75
2022/11/27 02:57:54;;;;;;;;;7.00;6.75;;;;;9.55;67.67;101546.56;5011618;28;45803;-73
2022/11/27 03:00:19;;;;;;;;;6.75;5.75;;;;;9.53;67.62;101533.56;5012668;28;45530;-74
2022/11/27 03:02:53;;;;;;;;;9.50;6.50;;;;;9.51;67.45;101532.78;5013529;28;46409;-74
2022/11/27 03:05:22;;;;;;;;;9.00;7.75;;;;;9.52;67.83;101536.25;5028729;28;47502;-73
2022/11/27 03:07:54;;;;;;;;;8.00;6.00;;;;;9.52;67.45;101539.72;5013173;28;45728;-73
2022/11/27 03:10:30;;;;;;;;;6.75;3.00;;;;;9.52;67.66;101528.41;5013740;28;45574;-74
2022/11/27 03:12:57;;;;;;;;;5.75;5.50;;;;;9.52;67.67;101526.63;5013265;28;46577;-73
2022/11/27 03:15:24;;;;;;;;;7.25;6.25;;;;;9.38;67.88;101508.19;5013568;28;46000;-75
2022/11/27 03:18:35;;;;;;;;;7.25;6.00;;;;;9.48;67.59;101524.25;5012989;28;45622;-74
2022/11/27 03:24:10;;;;;;;;;7.00;5.00;;;;;9.51;67.58;101524.94;5013224;28;46111;-74
2022/11/27 03:26:37;;;;;;;;;6.50;6.00;;;;;9.51;67.72;101511.84;5013265;28;46538;-75
2022/11/27 03:29:08;;;;;;;;;9.00;8.00;;;;;9.49;67.82;101503.25;5013136;28;45624;-74
2022/11/27 03:31:34;;;;;;;;;9.75;6.25;;;;;9.48;67.43;101498.09;5013446;28;45783;-74
2022/11/27 03:33:59;;;;;;;;;7.50;6.00;;;;;9.49;67.67;101497.19;5013047;28;47059;-74
2022/11/27 03:39:46;;;;;;;;;10.00;7.75;;;;;9.44;68.03;101486.13;5013113;28;45779;-75
2022/11/27 03:42:17;;;;;;;;;7.50;7.25;;;;;9.48;67.58;101482.41;5013516;28;45849;-74
2022/11/27 03:45:17;;;;;;;;;10.25;6.00;;;;;9.47;67.81;101471.09;5012033;28;48375;-72
2022/11/27 03:47:51;;;;;;;;;8.50;7.75;;;;;9.47;67.60;101478.94;5013107;28;46110;-72
2022/11/27 03:50:16;;;;;;;;;7.00;7.00;;;;;9.47;67.77;101478.94;5013227;28;45571;-73
2022/11/27 03:56:21;;;;;;;;;6.75;5.75;;;;;9.46;67.58;101471.16;5012457;28;45716;-75
2022/11/27 03:59:19;;;;;;;;;5.75;5.00;;;;;9.46;67.72;101466.78;5012450;28;47161;-74
2022/11/27 04:01:44;;;;;;;;;7.25;6.00;;;;;9.45;67.53;101459.00;4992809;28;45833;-74
2022/11/27 04:04:10;;;;;;;;;7.75;6.50;;;;;9.44;67.80;101458.19;4994794;28;45697;-75
2022/11/27 04:06:35;;;;;;;;;6.00;5.50;;;;;9.46;67.61;101463.31;4994193;28;45600;-73
2022/11/27 04:12:21;;;;;;;;;7.00;6.00;;;;;9.47;67.70;101468.47;4994083;28;45992;-73
2022/11/27 04:14:47;;;;;;;;;9.00;6.25;;;;;9.46;67.72;101465.94;4994095;28;45832;-74
2022/11/27 04:17:12;;;;;;;;;7.75;6.00;;;;;9.35;67.73;101453.44;4993916;28;46383;-74
2022/11/27 04:19:37;;;;;;;;;7.50;6.00;;;;;9.47;67.88;101472.88;4994074;28;46226;-75
2022/11/27 04:22:03;;;;;;;;;7.00;6.00;;;;;9.47;67.79;101467.63;4993928;28;45780;-74
2022/11/27 04:24:28;;;;;;;;;8.50;6.00;;;;;9.41;67.76;101452.25;4994406;28;46040;-75
2022/11/27 04:26:53;;;;;;;;;8.00;7.00;;;;;9.47;67.66;101465.00;4977052;28;47640;-73
2022/11/27 04:29:19;;;;;;;;;6.00;5.25;;;;;9.47;67.70;101462.41;4993849;28;46874;-74
2022/11/27 04:31:44;;;;;;;;;6.75;6.00;;;;;9.47;67.88;101455.41;4994046;28;45813;-74
2022/11/27 04:34:10;;;;;;;;;7.75;6.00;;;;;9.47;67.71;101437.09;4993493;28;45658;-75
2022/11/27 04:36:35;;;;;;;;;10.00;5.75;;;;;9.49;67.86;101450.09;4993777;28;45618;-75
2022/11/27 04:42:22;;;;;;;;;9.75;7.75;;;;;9.45;67.81;101449.41;5015355;28;45502;-74
2022/11/27 04:44:47;;;;;;;;;6.25;6.00;;;;;9.49;67.92;101440.47;5015607;28;45556;-75
2022/11/27 04:47:13;;;;;;;;;7.50;6.00;;;;;9.44;67.89;101423.34;5015206;28;45861;-74
2022/11/27 04:49:38;;;;;;;;;6.75;5.00;;;;;9.49;67.94;101430.03;5014928;28;45612;-73
2022/11/27 04:52:04;;;;;;;;;7.50;6.75;;;;;9.49;67.64;101429.19;5012910;28;45636;-75
2022/11/27 04:57:51;;;;;;;;;7.25;6.75;;;;;9.46;68.30;101411.88;5013567;28;45864;-73
2022/11/27 05:00:17;;;;;;;;;6.00;5.50;;;;;9.46;68.12;101413.63;5014350;28;45700;-74
2022/11/27 05:02:42;;;;;;;;;8.00;7.00;;;;;9.47;68.10;101405.72;5014678;28;45702;-74
2022/11/27 05:05:08;;;;;;;;;7.00;6.00;;;;;9.47;67.98;101404.88;5014675;28;45618;-74
2022/11/27 05:07:33;;;;;;;;;5.00;3.50;;;;;9.46;68.02;101411.00;5013425;28;46683;-74
2022/11/27 05:13:20;;;;;;;;;6.00;6.00;;;;;9.43;68.10;101385.88;5013881;28;45788;-74
2022/11/27 05:15:45;;;;;;;;;9.50;9.50;;;;;9.42;67.82;101391.19;5012586;28;45817;-73
2022/11/27 05:18:11;;;;;;;;;7.00;6.00;;;;;9.41;68.12;101379.03;5013757;28;47775;-76
2022/11/27 05:20:36;;;;;;;;;6.00;5.25;;;;;9.37;68.13;101386.22;5014097;28;47125;-74
2022/11/27 05:23:01;;;;;;;;;6.75;5.75;;;;;9.40;68.24;101378.19;5013568;28;45951;-72
2022/11/27 05:25:27;;;;;;;;;7.75;5.25;;;;;9.41;68.17;101384.25;5013996;28;45703;-74
2022/11/27 05:27:52;;;;;;;;;8.00;7.00;;;;;9.41;68.18;101390.34;5013280;28;46530;-74
2022/11/27 05:30:18;;;;;;;;;9.00;8.00;;;;;9.42;68.25;101389.41;5013902;28;46297;-74
2022/11/27 05:32:44;;;;;;;;;7.25;6.75;;;;;9.37;68.09;101378.38;5013702;28;45983;-74
2022/11/27 05:35:09;;;;;;;;;7.25;7.25;;;;;9.41;68.03;101390.34;5014347;28;45598;-74
2022/11/27 05:37:34;;;;;;;;;7.00;6.00;;;;;9.44;68.34;101397.19;5013622;28;45620;-74
2022/11/27 05:43:21;;;;;;;;;10.00;7.00;;;;;9.41;68.06;101384.25;5013641;28;45900;-74
2022/11/27 05:45:47;;;;;;;;;5.00;5.00;;;;;9.37;68.05;101367.91;5013338;28;45758;-74
2022/11/27 05:48:12;;;;;;;;;10.25;6.00;;;;;9.35;68.14;101369.75;5013593;28;45741;-74
2022/11/27 05:50:37;;;;;;;;;2.75;2.75;;;;;9.39;68.15;101367.84;5013425;28;45933;-73
2022/11/27 05:53:03;;;;;;;;;6.25;5.25;;;;;9.40;68.24;101372.97;5013343;28;45495;-73
2022/11/27 05:58:50;;;;;;;;;7.50;6.75;;;;;9.40;68.11;101379.94;5012809;28;45743;-74
2022/11/27 06:01:17;;;;;;;;;7.00;7.00;;;;;9.37;68.27;101377.50;5028559;28;47136;-74
2022/11/27 06:03:43;;;;;;;;;7.00;6.00;;;;;9.41;68.28;101379.88;5013889;28;45997;-74
2022/11/27 06:06:12;;;;;;;;;6.75;6.25;;;;;9.41;68.55;101372.03;5013194;28;45637;-73
2022/11/27 06:08:39;;;;;;;;;7.00;6.75;;;;;9.34;68.49;101360.22;5013322;28;46516;-74
2022/11/27 06:11:10;;;;;;;;;12.25;9.50;;;;;9.39;68.21;101371.28;5013457;28;45806;-73
2022/11/27 06:13:36;;;;;;;;;7.00;7.00;;;;;9.39;68.46;101362.59;5013165;28;45523;-72
2022/11/27 06:16:22;;;;;;;;;7.50;7.00;;;;;9.42;68.63;101365.88;5012656;28;45697;-74
2022/11/27 06:18:50;;;;;;;;;7.50;7.00;;;;;9.42;68.48;101370.28;5012886;28;46331;-74
2022/11/27 06:21:15;;;;;;;;;9.00;5.25;;;;;9.35;68.73;101350.59;5013223;28;46554;-76
2022/11/27 06:23:42;;;;;;;;;7.50;7.00;;;;;9.38;68.65;101360.91;5044040;28;45831;-74
2022/11/27 06:26:18;;;;;;;;;7.50;6.25;;;;;9.35;68.63;101353.22;5012737;28;46031;-74
2022/11/27 06:28:44;;;;;;;;;10.25;6.00;;;;;9.37;68.75;101361.81;5012737;28;46280;-74
2022/11/27 06:31:13;;;;;;;;;7.00;6.00;;;;;9.41;68.44;101360.72;5012872;28;46568;-74
2022/11/27 06:33:39;;;;;;;;;7.50;7.00;;;;;9.39;68.63;101341.69;5012922;28;45805;-74
2022/11/27 06:36:06;;;;;;;;;3.00;3.00;;;;;9.39;68.68;101342.53;5013042;28;45569;-74
2022/11/27 06:38:33;;;;;;;;;10.00;8.00;;;;;9.39;69.10;101334.69;5013005;28;45686;-74
2022/11/27 06:44:49;;;;;;;;;10.25;7.00;;;;;9.40;68.62;101331.13;5012661;28;45876;-75
2022/11/27 06:47:14;;;;;;;;;10.50;6.75;;;;;9.39;68.85;101324.22;5027876;28;45939;-73
2022/11/27 06:49:39;;;;;;;;;7.25;5.75;;;;;9.37;68.75;101323.44;5012765;28;45661;-74
2022/11/27 06:52:05;;;;;;;;;9.25;7.00;;;;;9.42;68.62;101331.03;5011296;28;47291;-72
2022/11/27 06:54:30;;;;;;;;;11.00;7.00;;;;;9.41;68.97;101324.13;5012684;28;45630;-75
2022/11/27 06:56:57;;;;;;;;;8.25;7.75;;;;;9.42;68.79;101321.44;5012244;28;45899;-74
2022/11/27 06:59:23;;;;;;;;;7.00;6.25;;;;;9.44;68.58;101323.97;5012117;28;47511;-75
2022/11/27 07:01:48;;;;;;;;;9.00;6.50;;;;;9.42;68.64;101313.59;5012658;28;46062;-75
2022/11/27 07:04:14;;;;;;;;;10.75;7.75;;;;;9.47;68.72;101318.56;5011425;28;45610;-75
2022/11/27 07:06:41;;;;;;;;;11.75;8.50;;;;;9.48;68.71;101325.47;5012077;28;45799;-75
2022/11/27 07:09:06;;;;;;;;;11.50;9.00;;;;;9.48;68.61;101310.63;5012311;28;46573;-74
2022/11/27 07:14:53;;;;;;;;;3.75;2.50;;;;;9.49;68.67;101303.63;5011884;28;45550;-75
2022/11/27 07:17:19;;;;;;;;;5.75;4.00;;;;;9.51;68.92;101299.13;5012208;28;45622;-75
2022/11/27 07:19:44;;;;;;;;;10.00;8.00;;;;;9.51;69.14;101302.59;5012243;28;46268;-73
2022/11/27 07:22:09;;;;;;;;;6.25;6.00;;;;;9.51;68.59;101299.97;5012339;28;46532;-74
2022/11/27 07:24:35;;;;;;;;;10.00;7.25;;;;;9.49;68.83;101295.78;5026912;28;45911;-73
2022/11/27 07:27:00;;;;;;;;;9.50;6.75;;;;;9.55;68.79;101301.53;5012511;28;45641;-74
2022/11/27 07:29:25;;;;;;;;;11.00;8.00;;;;;9.49;68.60;101294.00;5012348;28;47285;-74
2022/11/27 07:31:51;;;;;;;;;8.00;7.50;;;;;9.57;68.83;101317.97;5012643;28;46157;-75
2022/11/27 07:34:16;;;;;;;;;10.00;7.25;;;;;9.59;68.83;101310.03;5012161;28;45776;-73
2022/11/27 07:36:41;;;;;;;;;10.00;8.00;;;;;9.59;68.62;101316.13;5047159;28;45934;-72
2022/11/27 07:39:07;;;;;;;;;9.50;7.50;;;;;9.61;68.94;101319.47;5015237;28;46396;-74
2022/11/27 07:44:54;;;;;;;;;13.25;8.75;;;;;9.64;68.99;101321.09;5014811;28;45656;-75
2022/11/27 07:47:19;;;;;;;;;10.25;7.50;;;;;9.62;68.75;101305.47;5014958;28;45649;-74
2022/11/27 07:49:45;;;;;;;;;11.75;8.00;;;;;9.58;69.02;101300.50;5015518;28;45686;-74
2022/11/27 07:52:10;;;;;;;;;7.00;7.00;;;;;9.67;68.81;101310.44;5015818;28;45845;-74
2022/11/27 07:54:36;;;;;;;;;7.00;6.50;;;;;9.67;68.86;101320.91;5014859;28;45596;-74
2022/11/27 08:00:23;;;;;;;;;5.00;3.00;;;;;9.71;69.19;101325.06;5004078;28;45659;-74
2022/11/27 08:02:48;;;;;;;;;7.00;7.00;;;;;9.69;69.06;101314.66;5014878;28;45975;-74
2022/11/27 08:05:14;;;;;;;;;10.00;7.25;;;;;9.72;69.23;101320.66;5014754;28;45748;-74
2022/11/27 08:07:40;;;;;;;;;7.75;6.00;;;;;9.72;68.97;101316.25;5014971;28;45581;-75
2022/11/27 08:10:06;;;;;;;;;11.00;9.50;;;;;9.72;69.21;101321.47;5014858;28;45574;-73
2022/11/27 08:12:31;;;;;;;;;15.25;10.50;;;;;9.72;68.88;101321.47;5014229;28;46176;-74
2022/11/27 08:14:56;;;;;;;;;8.50;7.75;;;;;9.73;69.44;101306.63;5013840;28;45826;-74
2022/11/27 08:17:22;;;;;;;;;10.25;7.50;;;;;9.70;69.34;101297.19;5029344;28;45875;-75
2022/11/27 08:19:47;;;;;;;;;13.25;11.75;;;;;9.73;69.08;101299.63;5014470;28;46466;-74
2022/11/27 08:22:15;;;;;;;;;22.50;20.00;;;;;9.76;69.18;101298.63;5015202;28;46360;-75
2022/11/27 08:24:41;;;;;;;;;20.50;16.25;;;;;9.77;69.10;101298.50;5014847;28;45838;-75
2022/11/27 08:30:28;;;;;;;;;14.25;12.00;;;;;9.78;69.34;101281.03;5014909;28;45887;-77
2022/11/27 08:32:53;;;;;;;;;20.75;17.00;;;;;9.80;69.40;101284.44;5013284;28;46306;-75
2022/11/27 08:35:18;;;;;;;;;17.00;13.75;;;;;9.81;69.37;101283.50;5013130;28;45984;-74
2022/11/27 08:37:44;;;;;;;;;20.50;16.00;;;;;9.80;69.36;101279.19;5014850;28;45611;-75
2022/11/27 08:40:10;;;;;;;;;14.00;11.25;;;;;9.76;69.44;101267.22;5014556;28;45597;-74
2022/11/27 08:45:57;;;;;;;;;14.00;12.00;;;;;9.85;69.57;101264.06;5014454;28;45852;-75
2022/11/27 08:48:24;;;;;;;;;12.00;9.25;;;;;9.86;69.63;101266.59;5013732;28;45694;-75
2022/11/27 08:50:50;;;;;;;;;9.25;8.75;;;;;9.85;69.38;101261.47;5014323;28;47460;-75
2022/11/27 08:53:16;;;;;;;;;11.25;11.00;;;;;9.88;69.68;101261.28;5013283;28;45955;-75
2022/11/27 08:55:42;;;;;;;;;12.00;11.00;;;;;9.89;69.47;101253.34;5013844;28;45621;-75
2022/11/27 08:58:07;;;;;;;;;12.50;10.00;;;;;9.91;69.42;101243.63;5013684;28;45814;-74
2022/11/27 09:00:34;;;;;;;;;12.00;11.00;;;;;9.93;69.68;101241.75;5014504;28;46469;-76
2022/11/27 09:03:00;;;;;;;;;16.00;13.25;;;;;9.87;69.52;101220.34;5014265;28;47032;-76
2022/11/27 09:05:26;;;;;;;;;10.75;7.00;;;;;9.93;69.58;101222.63;5013918;28;45618;-75
2022/11/27 09:07:52;;;;;;;;;12.00;9.50;;;;;9.94;69.53;101219.03;5013984;28;45861;-76
2022/11/27 09:10:18;;;;;;;;;12.00;9.25;;;;;9.95;69.41;101220.72;5014537;28;45788;-75
2022/11/27 09:16:08;;;;;;;;;9.25;7.75;;;;;9.97;69.49;101214.50;5013685;28;45602;-76
2022/11/27 09:18:34;;;;;;;;;12.00;11.00;;;;;9.99;69.37;101207.38;5014122;28;45844;-77
2022/11/27 09:21:02;;;;;;;;;10.50;8.50;;;;;10.03;69.47;101219.38;5013196;28;46166;-76
2022/11/27 09:23:28;;;;;;;;;10.50;8.00;;;;;10.04;69.43;101218.41;5014017;28;46258;-75
2022/11/27 09:25:53;;;;;;;;;11.50;8.25;;;;;10.05;69.46;101212.25;5013847;28;45830;-77
2022/11/27 09:31:40;;;;;;;;;11.00;7.50;;;;;10.08;69.54;101208.63;5014263;28;45695;-77
2022/11/27 09:34:06;;;;;;;;;11.50;10.00;;;;;10.05;69.60;101196.53;5014091;28;46050;-77
2022/11/27 09:36:31;;;;;;;;;9.50;8.25;;;;;10.10;69.36;101202.34;5012841;28;45872;-77
2022/11/27 09:38:58;;;;;;;;;11.75;9.50;;;;;10.13;69.46;101192.63;5028872;28;45855;-75
2022/11/27 09:41:44;;;;;;;;;11.00;11.00;;;;;10.16;69.47;101177.59;5014002;28;45655;-76
2022/11/27 09:44:27;;;;;;;;;30.25;24.25;;;;;10.19;69.53;101172.19;5013407;28;46156;-79
2022/11/27 09:46:55;;;;;;;;;12.75;11.00;;;;;10.23;69.68;101159.75;5028493;28;46070;-77
2022/11/27 09:49:27;;;;;;;;;8.50;8.00;;;;;10.26;69.66;101152.53;5013377;28;45695;-75
2022/11/27 09:52:00;;;;;;;;;10.75;9.75;;;;;10.29;69.30;101139.28;5013848;28;45654;-74
2022/11/27 09:54:40;;;;;;;;;12.25;11.25;;;;;10.31;69.38;101141.81;5013731;28;45743;-74
2022/11/27 09:57:15;;;;;;;;;12.50;11.00;;;;;10.30;68.93;101138.34;5027227;28;45887;-74
2022/11/27 09:59:52;;;;;;;;;11.00;10.00;;;;;10.28;69.14;101147.22;5011754;28;45919;-76
2022/11/27 10:02:29;;;;;;;;;7.25;4.00;;;;;10.33;69.18;101153.00;5013239;28;46664;-75
2022/11/27 10:04:56;;;;;;;;;9.75;9.00;;;;;10.27;68.72;101154.22;5013611;28;46452;-76
2022/11/27 10:07:21;;;;;;;;;8.75;7.00;;;;;10.35;68.94;101161.63;5012917;28;45601;-75
2022/11/27 10:10:02;;;;;;;;;9.50;8.50;;;;;10.35;68.76;101169.50;5013119;28;45764;-75
2022/11/27 10:12:59;;;;;;;;;10.25;8.00;;;;;10.37;68.69;101172.84;5013301;28;45545;-75
2022/11/27 10:15:48;;;;;;;;;14.25;13.00;;;;;10.38;68.57;101174.53;5012281;28;46155;-76
2022/11/27 10:18:25;;;;;;;;;10.75;10.00;;;;;10.39;68.44;101181.44;5012078;28;45911;-76
2022/11/27 10:20:58;;;;;;;;;11.50;10.00;;;;;10.34;68.54;101162.56;5013335;28;45843;-76
2022/11/27 10:23:29;;;;;;;;;12.00;11.25;;;;;10.39;68.63;101166.59;5012452;28;46399;-75
2022/11/27 10:26:03;;;;;;;;;13.00;10.50;;;;;10.39;68.54;101158.72;5012616;28;47011;-76
2022/11/27 10:28:59;;;;;;;;;11.00;9.00;;;;;10.41;68.60;101149.00;5012037;28;45655;-76
2022/11/27 10:31:34;;;;;;;;;4.25;4.25;;;;;10.43;68.32;101156.75;5013140;28;46022;-76
2022/11/27 10:34:03;;;;;;;;;11.50;7.25;;;;;10.36;68.65;101129.28;5012904;28;46495;-76
2022/11/27 10:36:36;;;;;;;;;15.00;12.00;;;;;10.45;68.35;101123.44;5012835;28;46039;-75
2022/11/27 10:39:03;;;;;;;;;11.00;9.00;;;;;10.44;68.57;101133.09;5013699;28;45734;-76
2022/11/27 10:41:39;;;;;;;;;11.00;9.00;;;;;10.45;68.62;101129.53;5013108;28;45570;-75
2022/11/27 10:44:34;;;;;;;;;12.00;11.00;;;;;10.48;68.43;101136.34;5012755;28;46505;-75
2022/11/27 10:47:12;;;;;;;;;11.00;8.00;;;;;10.49;68.41;101135.41;5012278;28;46267;-76
2022/11/27 10:49:39;;;;;;;;;11.00;9.00;;;;;10.51;68.51;101128.31;5012757;28;45789;-75
2022/11/27 10:52:05;;;;;;;;;14.75;11.50;;;;;10.53;68.55;101127.25;5012342;28;45858;-75
2022/11/27 10:54:36;;;;;;;;;13.50;13.00;;;;;10.55;68.43;101121.94;5012424;28;47274;-75
2022/11/27 11:00:24;;;;;;;;;11.25;9.00;;;;;10.59;68.46;101122.56;5012313;28;45999;-75
2022/11/27 11:03:03;;;;;;;;;12.75;10.50;;;;;10.55;68.37;101118.47;5012640;28;45865;-75
2022/11/27 11:05:31;;;;;;;;;13.00;11.00;;;;;10.61;68.27;101118.09;5012347;28;45733;-76
2022/11/27 11:08:03;;;;;;;;;14.00;8.50;;;;;10.62;68.07;101107.53;5012366;28;46077;-75
2022/11/27 11:10:30;;;;;;;;;14.00;11.00;;;;;10.61;68.10;101105.84;5013977;28;45796;-77
2022/11/27 11:16:20;;;;;;;;;12.00;9.25;;;;;10.69;68.08;101107.97;5015605;28;46173;-77
2022/11/27 11:18:51;;;;;;;;;13.00;11.00;;;;;10.63;67.81;101085.63;5015667;28;46038;-75
2022/11/27 11:21:27;;;;;;;;;13.75;11.00;;;;;10.72;67.82;101092.88;5015304;28;46067;-75
2022/11/27 11:24:15;;;;;;;;;14.00;10.25;;;;;10.72;67.76;101085.03;5015260;28;46172;-76
2022/11/27 11:26:48;;;;;;;;;11.75;11.75;;;;;10.74;67.64;101077.09;5014959;28;47591;-75
2022/11/27 11:32:37;;;;;;;;;11.50;9.25;;;;;10.79;67.58;101060.13;5015466;28;45565;-76
2022/11/27 11:35:24;;;;;;;;;12.25;11.25;;;;;10.78;67.65;101053.19;5015365;28;45616;-76
2022/11/27 11:37:51;;;;;;;;;16.00;11.00;;;;;10.81;67.64;101052.97;5015309;28;46607;-77
2022/11/27 11:40:25;;;;;;;;;18.75;16.25;;;;;10.85;67.41;101049.22;5015342;28;47242;-76
2022/11/27 11:43:01;;;;;;;;;13.25;10.25;;;;;10.86;67.40;101047.44;5015780;28;45930;-76
2022/11/27 11:45:30;;;;;;;;;12.75;11.25;;;;;10.90;67.34;101046.31;5014998;28;45691;-77
2022/11/27 11:47:57;;;;;;;;;11.75;11.75;;;;;10.93;67.39;101046.09;5014806;28;46444;-76
2022/11/27 11:50:32;;;;;;;;;13.25;11.75;;;;;10.95;67.09;101044.22;5015337;28;47320;-77
2022/11/27 11:53:19;;;;;;;;;9.25;8.75;;;;;10.99;67.23;101039.63;5030800;28;46009;-76
2022/11/27 11:55:56;;;;;;;;;13.00;12.00;;;;;11.02;67.17;101034.16;5015327;28;45805;-77
2022/11/27 11:58:37;;;;;;;;;12.00;10.25;;;;;11.05;67.11;101032.19;5014526;28;46401;-76
2022/11/27 12:01:23;;;;;;;;;14.00;13.00;;;;;11.09;67.01;101027.56;5015068;28;46306;-76
2022/11/27 12:04:26;;;;;;;;;20.25;17.00;;;;;11.11;66.74;101023.94;5014918;28;45841;-77
2022/11/27 12:07:10;;;;;;;;;17.00;14.50;;;;;11.12;66.45;101012.47;5013895;28;45678;-77
2022/11/27 12:10:24;;;;;;;;;19.25;15.25;;;;;11.15;66.61;101008.81;5014826;28;46182;-76
2022/11/27 12:12:55;;;;;;;;;14.75;14.75;;;;;11.19;66.37;101011.13;4992535;28;46407;-77
2022/11/27 12:15:29;;;;;;;;;22.25;17.75;;;;;11.23;66.57;100998.63;4992363;28;45874;-78
2022/11/27 12:18:07;;;;;;;;;13.75;12.75;;;;;11.24;66.38;100997.69;4992772;28;45758;-75
2022/11/27 12:20:59;;;;;;;;;19.00;15.50;;;;;11.29;66.23;100987.72;4993125;28;46896;-77
2022/11/27 12:23:42;;;;;;;;;17.75;15.00;;;;;11.32;66.20;100982.28;4991755;28;46166;-77
2022/11/27 12:26:20;;;;;;;;;15.75;13.50;;;;;11.32;66.22;100963.94;4991755;28;45863;-77
2022/11/27 12:32:21;;;;;;;;;14.00;14.00;;;;;11.38;65.75;100960.91;4991312;28;45907;-76
2022/11/27 12:34:49;;;;;;;;;21.00;19.25;;;;;11.40;65.62;100955.53;4975578;28;48135;-76
2022/11/27 12:37:20;;;;;;;;;14.00;13.75;;;;;11.40;65.53;100953.75;4992314;28;45937;-78
2022/11/27 12:40:07;;;;;;;;;19.25;16.00;;;;;11.41;65.50;100949.34;4992042;28;45659;-76
2022/11/27 12:42:44;;;;;;;;;14.50;13.75;;;;;11.40;65.67;100938.00;4991692;28;45972;-78
2022/11/27 12:48:31;;;;;;;;;15.25;15.00;;;;;11.44;65.76;100942.13;4992371;28;45805;-76
2022/11/27 12:51:11;;;;;;;;;15.25;15.00;;;;;11.46;65.66;100916.59;5013689;28;45651;-77
2022/11/27 12:54:03;;;;;;;;;16.00;14.00;;;;;11.51;65.55;100911.84;5012962;28;46881;-75
2022/11/27 12:56:52;;;;;;;;;12.75;12.00;;;;;11.53;65.57;100909.13;5013206;28;45930;-76
2022/11/27 12:59:24;;;;;;;;;15.50;13.00;;;;;11.56;65.38;100903.66;5014032;28;46005;-76
2022/11/27 13:02:00;;;;;;;;;16.50;15.25;;;;;11.58;65.49;100905.25;5013918;28;45890;-77
2022/11/27 13:04:35;;;;;;;;;13.00;11.50;;;;;11.61;65.34;100891.03;5014030;28;46537;-76